createdAt,value
2018-05-18T00:01:13.916Z,13.34
2018-05-18T00:03:43.054Z,13.34
2018-05-18T00:06:11.409Z,13.31
2018-05-18T00:08:39.777Z,13.31
2018-05-18T00:11:08.106Z,13.25
2018-05-18T00:13:36.482Z,13.23
2018-05-18T00:16:04.807Z,13.10
2018-05-18T00:18:33.908Z,13.11
2018-05-18T00:21:02.368Z,13.09
2018-05-18T00:23:30.625Z,13.06
2018-05-18T00:25:58.956Z,13.01
2018-05-18T00:28:27.325Z,13.00
2018-05-18T00:30:55.675Z,12.93
2018-05-18T00:33:24.032Z,12.84
2018-05-18T00:35:52.405Z,12.77
2018-05-18T00:38:20.771Z,12.75
2018-05-18T00:40:49.091Z,12.59
2018-05-18T00:43:18.241Z,12.60
2018-05-18T00:45:46.581Z,12.56
2018-05-18T00:48:14.939Z,12.51
2018-05-18T00:50:44.077Z,12.56
2018-05-18T00:53:12.449Z,12.43
2018-05-18T00:55:42.411Z,12.51
2018-05-18T00:58:10.797Z,12.31
2018-05-18T01:00:39.163Z,12.23
2018-05-18T01:03:07.590Z,12.07
2018-05-18T01:05:35.972Z,12.06
2018-05-18T01:08:04.328Z,12.02
2018-05-18T01:10:33.432Z,12.00
2018-05-18T01:13:01.817Z,11.87
2018-05-18T01:15:30.136Z,11.90
2018-05-18T01:17:58.499Z,11.97
2018-05-18T01:20:26.819Z,11.93
2018-05-18T01:22:55.175Z,11.92
2018-05-18T01:25:23.525Z,11.85
2018-05-18T01:27:51.909Z,11.74
2018-05-18T01:30:20.261Z,11.67
2018-05-18T01:32:49.049Z,11.69
2018-05-18T01:35:17.386Z,11.67
2018-05-18T01:37:45.713Z,11.43
2018-05-18T01:40:14.103Z,11.58
2018-05-18T01:42:42.825Z,11.51
2018-05-18T01:45:11.210Z,11.54
2018-05-18T01:47:39.555Z,11.48
2018-05-18T01:50:07.879Z,11.49
2018-05-18T01:52:37.030Z,11.40
2018-05-18T01:55:05.428Z,11.45
2018-05-18T01:57:33.807Z,11.39
2018-05-18T02:00:02.177Z,11.36
2018-05-18T02:02:30.544Z,11.27
2018-05-18T02:04:58.888Z,11.28
2018-05-18T02:07:27.286Z,11.25
2018-05-18T02:09:56.522Z,11.21
2018-05-18T02:12:24.888Z,11.18
2018-05-18T02:14:53.228Z,11.09
2018-05-18T02:17:21.550Z,11.05
2018-05-18T02:19:49.890Z,11.00
2018-05-18T02:22:19.307Z,11.01
2018-05-18T02:24:47.693Z,11.01
2018-05-18T02:27:16.064Z,10.95
2018-05-18T02:29:44.528Z,10.96
2018-05-18T02:32:12.877Z,10.90
2018-05-18T02:34:42.061Z,10.92
2018-05-18T02:37:11.068Z,10.97
2018-05-18T02:39:40.238Z,10.91
2018-05-18T02:42:09.345Z,10.90
2018-05-18T02:44:38.488Z,10.88
2018-05-18T02:47:07.009Z,10.86
2018-05-18T02:49:35.344Z,10.81
2018-05-18T02:52:03.724Z,10.77
2018-05-18T02:54:32.108Z,10.74
2018-05-18T02:57:00.563Z,10.76
2018-05-18T02:59:29.350Z,10.69
2018-05-18T03:01:58.581Z,10.76
2018-05-18T03:04:27.622Z,10.77
2018-05-18T03:06:57.800Z,10.72
2018-05-18T03:09:26.736Z,10.76
2018-05-18T03:11:55.509Z,10.77
2018-05-18T03:14:23.824Z,10.76
2018-05-18T03:16:52.931Z,10.70
2018-05-18T03:19:21.541Z,10.60
2018-05-18T03:21:49.942Z,10.61
2018-05-18T03:24:18.272Z,10.59
2018-05-18T03:26:46.616Z,10.64
2018-05-18T03:29:15.746Z,10.66
2018-05-18T03:31:44.054Z,10.68
2018-05-18T03:34:12.411Z,10.74
2018-05-18T03:36:40.827Z,10.80
2018-05-18T03:39:09.284Z,10.95
2018-05-18T03:41:37.691Z,10.99
2018-05-18T03:44:06.789Z,11.06
2018-05-18T03:46:35.982Z,11.11
2018-05-18T03:49:04.333Z,11.13
2018-05-18T03:51:33.466Z,11.20
2018-05-18T03:54:02.941Z,11.25
2018-05-18T03:56:31.297Z,11.28
2018-05-18T03:58:59.653Z,11.33
2018-05-18T04:01:45.666Z,11.43
2018-05-18T04:04:31.543Z,11.47
2018-05-18T04:07:17.523Z,11.53
2018-05-18T04:09:46.815Z,11.59
2018-05-18T04:12:15.184Z,11.62
2018-05-18T04:14:45.207Z,11.65
2018-05-18T04:17:13.679Z,11.64
2018-05-18T04:19:44.265Z,11.66
2018-05-18T04:22:13.071Z,11.65
2018-05-18T04:24:42.983Z,11.55
2018-05-18T04:27:12.398Z,11.43
2018-05-18T04:29:42.294Z,11.41
2018-05-18T04:32:11.431Z,11.42
2018-05-18T04:34:41.266Z,11.51
2018-05-18T04:37:10.412Z,11.36
2018-05-18T04:39:39.113Z,11.37
2018-05-18T04:42:08.967Z,11.42
2018-05-18T04:44:37.293Z,11.46
2018-05-18T04:47:06.522Z,11.41
2018-05-18T04:49:36.148Z,11.42
2018-05-18T04:52:04.516Z,11.43
2018-05-18T04:54:32.858Z,11.48
2018-05-18T04:57:02.836Z,11.50
2018-05-18T04:59:31.887Z,11.63
2018-05-18T05:02:00.381Z,11.76
2018-05-18T05:04:28.765Z,12.00
2018-05-18T05:06:57.276Z,12.21
2018-05-18T05:09:26.529Z,12.32
2018-05-18T05:11:57.126Z,12.29
2018-05-18T05:14:27.067Z,12.38
2018-05-18T05:16:56.227Z,12.54
2018-05-18T05:19:25.514Z,12.77
2018-05-18T05:21:54.455Z,12.89
2018-05-18T05:24:24.574Z,13.09
2018-05-18T05:26:52.893Z,13.27
2018-05-18T05:29:21.389Z,13.26
2018-05-18T05:31:50.193Z,13.28
2018-05-18T05:34:18.646Z,13.51
2018-05-18T05:36:47.049Z,13.69
2018-05-18T05:39:15.378Z,13.70
2018-05-18T05:41:44.879Z,13.33
2018-05-18T05:44:13.875Z,13.52
2018-05-18T05:46:42.219Z,13.68
2018-05-18T05:49:12.079Z,13.76
2018-05-18T05:51:40.546Z,13.84
2018-05-18T05:54:08.891Z,14.12
2018-05-18T05:56:37.261Z,14.21
2018-05-18T05:59:05.594Z,14.36
2018-05-18T06:01:33.965Z,14.51
2018-05-18T06:04:02.303Z,14.59
2018-05-18T06:06:31.394Z,14.62
2018-05-18T06:09:00.560Z,14.52
2018-05-18T06:11:28.927Z,14.50
2018-05-18T06:13:57.326Z,14.50
2018-05-18T06:16:25.671Z,14.57
2018-05-18T06:18:54.391Z,14.72
2018-05-18T06:21:24.583Z,14.74
2018-05-18T06:23:52.953Z,14.60
2018-05-18T06:26:21.346Z,14.64
2018-05-18T06:28:49.740Z,14.57
2018-05-18T06:31:18.167Z,14.66
2018-05-18T06:33:46.558Z,14.56
2018-05-18T06:36:14.916Z,14.63
2018-05-18T06:38:44.017Z,14.64
2018-05-18T06:41:12.588Z,14.50
2018-05-18T06:43:40.878Z,14.48
2018-05-18T06:46:09.278Z,14.50
2018-05-18T06:48:37.649Z,14.72
2018-05-18T06:51:06.013Z,14.64
2018-05-18T06:53:34.379Z,14.81
2018-05-18T06:56:03.470Z,14.98
2018-05-18T06:58:32.597Z,15.31
2018-05-18T07:01:01.120Z,15.36
2018-05-18T07:03:30.263Z,15.45
2018-05-18T07:05:58.592Z,15.41
2018-05-18T07:08:28.443Z,15.59
2018-05-18T07:10:58.116Z,15.75
2018-05-18T07:13:26.481Z,15.91
2018-05-18T07:15:54.842Z,16.23
2018-05-18T07:18:23.216Z,16.41
2018-05-18T07:20:51.582Z,16.61
2018-05-18T07:23:20.675Z,16.76
2018-05-18T07:25:49.788Z,16.80
2018-05-18T07:28:18.701Z,16.96
2018-05-18T07:30:47.557Z,16.73
2018-05-18T07:33:16.332Z,16.81
2018-05-18T07:35:45.135Z,17.26
2018-05-18T07:38:13.520Z,17.62
2018-05-18T07:40:41.855Z,17.85
2018-05-18T07:43:11.002Z,18.28
2018-05-18T07:45:39.341Z,18.12
2018-05-18T07:48:08.452Z,18.05
2018-05-18T07:50:36.800Z,18.43
2018-05-18T07:53:05.944Z,17.68
2018-05-18T07:55:34.313Z,17.14
2018-05-18T07:58:02.691Z,16.76
2018-05-18T08:00:31.833Z,16.82
2018-05-18T08:03:00.183Z,17.14
2018-05-18T08:05:28.544Z,17.79
2018-05-18T08:07:57.070Z,18.80
2018-05-18T08:10:25.402Z,18.84
2018-05-18T08:12:53.762Z,19.03
2018-05-18T08:15:22.123Z,19.03
2018-05-18T08:17:51.205Z,18.79
2018-05-18T08:20:20.329Z,19.54
2018-05-18T08:22:48.695Z,19.33
2018-05-18T08:25:17.043Z,19.00
2018-05-18T08:27:45.439Z,18.75
2018-05-18T08:30:13.768Z,18.87
2018-05-18T08:32:42.088Z,18.53
2018-05-18T08:35:11.243Z,17.88
2018-05-18T08:37:39.605Z,18.06
2018-05-18T08:40:07.932Z,18.32
2018-05-18T08:42:37.048Z,17.67
2018-05-18T08:45:06.161Z,17.70
2018-05-18T08:47:34.501Z,17.65
2018-05-18T08:50:02.962Z,17.93
2018-05-18T08:52:32.035Z,18.39
2018-05-18T08:55:00.361Z,18.69
2018-05-18T08:57:29.490Z,18.55
2018-05-18T08:59:57.866Z,18.18
2018-05-18T09:02:26.212Z,18.26
2018-05-18T09:04:55.354Z,18.59
2018-05-18T09:07:23.701Z,18.70
2018-05-18T09:09:52.809Z,19.32
2018-05-18T09:12:21.183Z,19.18
2018-05-18T09:14:49.571Z,19.44
2018-05-18T09:17:17.928Z,19.69
2018-05-18T09:19:46.262Z,19.29
2018-05-18T09:22:14.585Z,19.31
2018-05-18T09:24:43.698Z,19.20
2018-05-18T09:27:12.082Z,18.97
2018-05-18T09:29:40.431Z,18.97
2018-05-18T09:32:09.539Z,19.04
2018-05-18T09:34:37.889Z,19.26
2018-05-18T09:37:06.253Z,19.47
2018-05-18T09:39:34.610Z,19.74
2018-05-18T09:42:02.962Z,19.21
2018-05-18T09:44:32.116Z,19.04
2018-05-18T09:47:00.497Z,18.82
2018-05-18T09:49:29.334Z,18.72
2018-05-18T09:51:58.491Z,19.73
2018-05-18T09:54:27.849Z,19.85
2018-05-18T09:56:56.835Z,19.69
2018-05-18T09:59:26.092Z,19.61
2018-05-18T10:01:55.223Z,19.70
2018-05-18T10:04:23.563Z,19.88
2018-05-18T10:06:52.775Z,19.89
2018-05-18T10:09:21.945Z,19.98
2018-05-18T10:11:50.307Z,19.77
2018-05-18T10:14:18.672Z,19.59
2018-05-18T10:16:47.026Z,19.88
2018-05-18T10:19:15.388Z,19.85
2018-05-18T10:21:44.220Z,19.67
2018-05-18T10:24:12.946Z,19.34
2018-05-18T10:26:42.397Z,19.14
2018-05-18T10:29:11.459Z,19.01
2018-05-18T10:31:40.114Z,19.43
2018-05-18T10:34:11.720Z,20.26
2018-05-18T10:36:40.128Z,20.49
2018-05-18T10:39:08.519Z,20.48
2018-05-18T10:41:38.848Z,20.64
2018-05-18T10:44:08.036Z,20.86
2018-05-18T10:46:37.304Z,20.47
2018-05-18T10:49:05.811Z,20.39
2018-05-18T10:51:36.388Z,20.76
2018-05-18T10:54:04.940Z,21.20
2018-05-18T10:56:34.138Z,20.88
2018-05-18T10:59:03.253Z,20.38
2018-05-18T11:01:32.429Z,20.07
2018-05-18T11:04:02.145Z,20.53
2018-05-18T11:06:31.335Z,21.53
2018-05-18T11:08:59.722Z,20.84
2018-05-18T11:11:28.875Z,20.29
2018-05-18T11:13:59.045Z,19.94
2018-05-18T11:16:27.983Z,19.82
2018-05-18T11:18:57.196Z,19.76
2018-05-18T11:21:26.381Z,20.01
2018-05-18T11:23:55.224Z,20.07
2018-05-18T11:26:23.612Z,20.36
2018-05-18T11:28:52.033Z,20.49
2018-05-18T11:31:21.256Z,20.24
2018-05-18T11:33:50.648Z,20.58
2018-05-18T11:36:21.295Z,21.20
2018-05-18T11:38:51.251Z,20.87
2018-05-18T11:41:20.947Z,22.01
2018-05-18T11:43:49.382Z,21.68
2018-05-18T11:46:17.718Z,21.39
2018-05-18T11:48:46.056Z,21.09
2018-05-18T11:51:15.210Z,20.51
2018-05-18T11:53:43.538Z,21.01
2018-05-18T11:56:12.791Z,21.03
2018-05-18T11:58:41.126Z,21.63
2018-05-18T12:01:09.499Z,22.17
2018-05-18T12:03:37.852Z,22.78
2018-05-18T12:06:06.233Z,22.76
2018-05-18T12:08:34.631Z,22.72
2018-05-18T12:11:26.354Z,22.30
2018-05-18T12:14:18.016Z,21.94
2018-05-18T12:17:09.876Z,21.71
2018-05-18T12:19:38.320Z,21.63
2018-05-18T12:22:06.747Z,21.56
2018-05-18T12:24:35.100Z,21.42
2018-05-18T12:27:03.439Z,22.30
2018-05-18T12:29:31.846Z,22.18
2018-05-18T12:32:00.221Z,21.44
2018-05-18T12:34:28.579Z,21.80
2018-05-18T12:36:56.968Z,22.57
2018-05-18T12:39:25.352Z,21.74
2018-05-18T12:41:54.561Z,21.33
2018-05-18T12:44:22.932Z,20.23
2018-05-18T12:46:51.299Z,20.55
2018-05-18T12:49:19.660Z,19.72
2018-05-18T12:51:47.995Z,19.43
2018-05-18T12:54:16.388Z,19.73
2018-05-18T12:56:45.549Z,20.08
2018-05-18T12:59:13.882Z,20.38
2018-05-18T13:01:46.237Z,19.94
2018-05-18T13:04:16.106Z,20.05
2018-05-18T13:06:44.444Z,20.21
2018-05-18T13:09:12.816Z,21.25
2018-05-18T13:11:41.181Z,20.54
2018-05-18T13:14:13.860Z,20.14
2018-05-18T13:16:43.564Z,20.27
2018-05-18T13:19:11.960Z,20.05
2018-05-18T13:21:44.436Z,20.36
2018-05-18T13:24:13.580Z,20.41
2018-05-18T13:26:42.748Z,20.18
2018-05-18T13:29:12.323Z,19.78
2018-05-18T13:31:42.767Z,19.90
2018-05-18T13:34:11.135Z,19.88
2018-05-18T13:36:40.292Z,19.60
2018-05-18T13:39:08.695Z,19.68
2018-05-18T13:41:38.399Z,20.44
2018-05-18T13:44:06.756Z,21.31
2018-05-18T13:46:35.528Z,21.11
2018-05-18T13:49:05.009Z,21.21
2018-05-18T13:51:33.407Z,21.40
2018-05-18T13:54:01.787Z,21.31
2018-05-18T13:56:30.154Z,21.66
2018-05-18T13:58:58.513Z,21.34
2018-05-18T14:01:27.738Z,21.07
2018-05-18T14:03:56.227Z,21.28
2018-05-18T14:06:24.784Z,21.52
2018-05-18T14:08:54.061Z,21.69
2018-05-18T14:11:24.082Z,22.03
2018-05-18T14:13:53.357Z,22.20
2018-05-18T14:16:21.723Z,21.61
2018-05-18T14:18:50.176Z,21.68
2018-05-18T14:21:18.572Z,22.53
2018-05-18T14:23:46.995Z,22.78
2018-05-18T14:26:17.692Z,23.11
2018-05-18T14:28:46.689Z,22.53
2018-05-18T14:31:15.075Z,22.84
2018-05-18T14:33:44.575Z,22.86
2018-05-18T14:36:12.949Z,22.80
2018-05-18T14:38:41.331Z,22.41
2018-05-18T14:41:09.679Z,22.36
2018-05-18T14:43:38.023Z,22.56
2018-05-18T14:46:06.401Z,22.58
2018-05-18T14:48:34.781Z,22.42
2018-05-18T14:51:03.215Z,22.77
2018-05-18T14:53:32.306Z,23.05
2018-05-18T14:56:00.668Z,22.73
2018-05-18T14:58:29.028Z,22.69
2018-05-18T15:00:57.388Z,22.65
2018-05-18T15:03:25.763Z,22.95
2018-05-18T15:05:54.856Z,23.05
2018-05-18T15:08:23.235Z,22.82
2018-05-18T15:10:51.599Z,22.47
2018-05-18T15:13:20.738Z,21.79
2018-05-18T15:15:49.173Z,22.18
2018-05-18T15:18:18.278Z,22.78
2018-05-18T15:20:47.665Z,22.30
2018-05-18T15:23:16.992Z,21.72
2018-05-18T15:25:46.411Z,21.35
2018-05-18T15:28:14.999Z,21.29
2018-05-18T15:30:43.475Z,21.03
2018-05-18T15:33:12.102Z,20.81
2018-05-18T15:35:40.705Z,20.68
2018-05-18T15:38:09.840Z,20.77
2018-05-18T15:40:38.627Z,20.75
2018-05-18T15:43:06.987Z,20.45
2018-05-18T15:45:35.355Z,20.34
2018-05-18T15:48:04.650Z,20.04
2018-05-18T15:50:33.927Z,20.30
2018-05-18T15:53:02.320Z,20.56
2018-05-18T15:55:31.444Z,20.33
2018-05-18T15:57:59.832Z,19.77
2018-05-18T16:00:28.168Z,19.56
2018-05-18T16:02:59.169Z,19.67
2018-05-18T16:05:28.410Z,19.78
2018-05-18T16:08:00.548Z,19.52
2018-05-18T16:10:28.902Z,19.46
2018-05-18T16:12:57.295Z,19.39
2018-05-18T16:15:27.103Z,19.14
2018-05-18T16:17:56.482Z,19.03
2018-05-18T16:20:25.340Z,18.76
2018-05-18T16:22:54.446Z,18.89
2018-05-18T16:25:23.678Z,19.00
2018-05-18T16:27:52.947Z,18.90
2018-05-18T16:33:07.548Z,18.69
2018-05-18T16:35:36.540Z,18.77
2018-05-18T16:38:10.837Z,18.80
2018-05-18T16:40:39.621Z,18.86
2018-05-18T16:43:08.710Z,18.84
2018-05-18T16:45:37.065Z,18.65
2018-05-18T16:48:06.673Z,18.48
2018-05-18T16:50:36.024Z,18.44
2018-05-18T16:53:04.398Z,18.30
2018-05-18T16:55:40.830Z,18.22
2018-05-18T16:58:09.459Z,18.22
2018-05-18T17:00:37.910Z,18.10
2018-05-18T17:03:06.286Z,18.12
2018-05-18T17:05:34.632Z,18.13
2018-05-18T17:08:03.075Z,18.10
2018-05-18T17:10:31.552Z,17.91
2018-05-18T17:12:59.936Z,17.81
2018-05-18T17:15:28.538Z,17.71
2018-05-18T17:17:57.037Z,17.60
2018-05-18T17:20:25.976Z,17.46
2018-05-18T17:22:54.343Z,17.34
2018-05-18T17:25:22.799Z,17.19
2018-05-18T17:27:51.169Z,17.10
2018-05-18T17:30:20.155Z,17.09
2018-05-18T17:32:49.303Z,17.09
2018-05-18T17:35:18.429Z,17.01
2018-05-18T17:37:46.933Z,16.96
2018-05-18T17:40:16.097Z,16.91
2018-05-18T17:42:45.779Z,16.85
2018-05-18T17:45:14.168Z,16.76
2018-05-18T17:47:42.594Z,16.64
2018-05-18T17:50:10.960Z,16.65
2018-05-18T17:52:39.377Z,16.62
2018-05-18T17:55:07.765Z,16.57
2018-05-18T17:57:36.191Z,16.47
2018-05-18T18:00:04.567Z,16.52
2018-05-18T18:02:32.993Z,16.40
2018-05-18T18:05:01.351Z,16.40
2018-05-18T18:07:33.359Z,16.25
2018-05-18T18:10:03.820Z,16.20
2018-05-18T18:12:32.234Z,16.17
2018-05-18T18:15:03.497Z,16.18
2018-05-18T18:17:32.352Z,16.08
2018-05-18T18:20:00.766Z,16.01
2018-05-18T18:22:29.236Z,15.95
2018-05-18T18:24:57.517Z,16.00
2018-05-18T18:27:26.457Z,15.91
2018-05-18T18:29:54.937Z,15.89
2018-05-18T18:32:23.326Z,15.85
2018-05-18T18:34:51.899Z,15.79
2018-05-18T18:37:20.389Z,15.81
2018-05-18T18:39:49.349Z,15.90
2018-05-18T18:42:17.946Z,15.82
2018-05-18T18:44:47.332Z,15.87
2018-05-18T18:47:16.516Z,15.78
2018-05-18T18:49:47.219Z,15.79
2018-05-18T18:52:15.596Z,15.78
2018-05-18T18:54:44.248Z,15.76
2018-05-18T18:57:13.903Z,15.64
2018-05-18T18:59:42.834Z,15.62
2018-05-18T19:02:12.156Z,15.49
2018-05-18T19:04:40.561Z,15.36
2018-05-18T19:07:09.714Z,15.40
2018-05-18T19:09:38.103Z,15.42
2018-05-18T19:12:07.337Z,15.55
2018-05-18T19:14:38.000Z,15.49
2018-05-18T19:17:06.418Z,15.47
2018-05-18T19:19:35.773Z,15.38
2018-05-18T19:22:04.167Z,15.45
2018-05-18T19:24:32.586Z,15.42
2018-05-18T19:27:01.576Z,15.38
2018-05-18T19:29:29.926Z,15.29
2018-05-18T19:31:59.552Z,15.29
2018-05-18T19:34:29.618Z,15.43
2018-05-18T19:36:59.000Z,15.41
2018-05-18T19:39:29.437Z,15.40
2018-05-18T19:41:58.036Z,15.16
2018-05-18T19:44:26.576Z,15.18
2018-05-18T19:46:55.876Z,15.23
2018-05-18T19:49:24.350Z,14.98
2018-05-18T19:51:52.792Z,14.96
2018-05-18T19:54:26.992Z,14.93
2018-05-18T19:56:56.355Z,15.03
2018-05-18T19:59:24.958Z,15.02
2018-05-18T20:01:53.521Z,15.07
2018-05-18T20:04:22.380Z,15.16
2018-05-18T20:06:52.139Z,15.17
2018-05-18T20:09:21.378Z,15.11
2018-05-18T20:11:49.812Z,15.08
2018-05-18T20:14:18.973Z,15.03
2018-05-18T20:16:47.411Z,15.05
2018-05-18T20:19:17.144Z,15.00
2018-05-18T20:21:45.766Z,14.86
2018-05-18T20:24:14.188Z,14.87
2018-05-18T20:26:42.604Z,14.71
2018-05-18T20:29:10.964Z,14.55
2018-05-18T20:31:39.304Z,14.38
2018-05-18T20:34:07.695Z,14.36
2018-05-18T20:36:36.056Z,14.36
2018-05-18T20:39:06.066Z,14.42
2018-05-18T20:41:35.199Z,14.42
2018-05-18T20:44:03.605Z,14.44
2018-05-18T20:46:31.936Z,14.45
2018-05-18T20:49:01.054Z,14.49
2018-05-18T20:51:29.435Z,14.56
2018-05-18T20:53:57.779Z,14.52
2018-05-18T20:56:26.916Z,14.51
2018-05-18T20:58:55.290Z,14.49
2018-05-18T21:01:23.654Z,14.51
2018-05-18T21:03:51.992Z,14.50
2018-05-18T21:06:20.329Z,14.54
2018-05-18T21:08:48.692Z,14.59
2018-05-18T21:11:17.070Z,14.52
2018-05-18T21:13:45.443Z,14.56
2018-05-18T21:16:13.823Z,14.57
2018-05-18T21:18:42.199Z,14.61
2018-05-18T21:21:10.525Z,14.61
2018-05-18T21:23:38.898Z,14.68
2018-05-18T21:26:07.251Z,14.60
2018-05-18T21:28:35.587Z,14.59
2018-05-18T21:31:04.733Z,14.54
2018-05-18T21:33:33.136Z,14.55
2018-05-18T21:36:01.504Z,14.51
2018-05-18T21:38:29.867Z,14.53
2018-05-18T21:40:58.291Z,14.56
2018-05-18T21:43:27.382Z,14.51
2018-05-18T21:45:56.524Z,14.45
2018-05-18T21:48:24.857Z,14.51
2018-05-18T21:50:53.957Z,14.45
2018-05-18T21:53:23.086Z,14.41
2018-05-18T21:55:51.471Z,14.38
2018-05-18T21:58:19.847Z,14.32
2018-05-18T22:00:48.232Z,14.27
2018-05-18T22:03:16.599Z,14.27
2018-05-18T22:05:44.995Z,14.33
2018-05-18T22:08:13.400Z,14.32
2018-05-18T22:10:41.775Z,14.37
2018-05-18T22:13:10.157Z,14.36
2018-05-18T22:15:38.535Z,14.35
2018-05-18T22:18:06.907Z,14.35
2018-05-18T22:20:35.255Z,14.30
2018-05-18T22:23:03.591Z,14.27
2018-05-18T22:25:32.725Z,14.30
2018-05-18T22:28:01.083Z,14.28
2018-05-18T22:30:29.923Z,14.23
2018-05-18T22:32:58.279Z,14.21
2018-05-18T22:35:26.650Z,14.24
2018-05-18T22:37:55.000Z,14.25
2018-05-18T22:40:23.358Z,14.23
2018-05-18T22:42:52.494Z,14.21
2018-05-18T22:45:20.845Z,14.25
2018-05-18T22:47:49.250Z,14.18
2018-05-18T22:50:17.602Z,14.16
2018-05-18T22:52:46.757Z,14.18
2018-05-18T22:55:15.109Z,14.24
2018-05-18T22:57:43.467Z,14.23
2018-05-18T23:00:11.830Z,14.11
2018-05-18T23:02:40.961Z,14.16
2018-05-18T23:05:09.382Z,14.13
2018-05-18T23:07:37.713Z,14.12
2018-05-18T23:10:06.088Z,14.10
2018-05-18T23:12:34.446Z,14.15
2018-05-18T23:15:02.794Z,14.10
2018-05-18T23:17:31.166Z,14.11
2018-05-18T23:19:59.508Z,14.14
2018-05-18T23:22:27.880Z,14.16
2018-05-18T23:24:56.210Z,14.11
2018-05-18T23:27:24.574Z,14.11
2018-05-18T23:29:52.910Z,14.18
2018-05-18T23:32:21.270Z,14.19
2018-05-18T23:34:49.629Z,14.19
2018-05-18T23:37:18.741Z,14.15
2018-05-18T23:39:47.116Z,14.12
2018-05-18T23:42:16.218Z,14.10
2018-05-18T23:44:45.601Z,14.09
2018-05-18T23:47:13.967Z,14.10
2018-05-18T23:49:43.188Z,14.03
2018-05-18T23:52:11.567Z,14.03
2018-05-18T23:54:40.796Z,14.05
2018-05-18T23:57:09.122Z,13.95
2018-05-18T23:59:37.478Z,13.96
